createdAt,value
2018-08-24T00:00:45.996Z,12.10
2018-08-24T00:03:15.088Z,12.95
2018-08-24T00:05:44.276Z,12.07
2018-08-24T00:08:14.654Z,14.05
2018-08-24T00:10:46.075Z,10.95
2018-08-24T00:13:15.390Z,10.88
2018-08-24T00:15:47.520Z,9.90
2018-08-24T00:20:44.763Z,11.95
2018-08-24T00:23:14.373Z,12.63
2018-08-24T00:25:43.970Z,11.95
2018-08-24T00:28:13.789Z,13.18
2018-08-24T00:30:43.064Z,14.45
2018-08-24T00:33:12.381Z,13.70
2018-08-24T00:35:42.106Z,13.13
2018-08-24T00:38:11.821Z,12.73
2018-08-24T00:40:41.371Z,14.00
2018-08-24T00:43:10.315Z,13.08
2018-08-24T00:45:39.528Z,14.30
2018-08-24T00:48:08.451Z,16.45
2018-08-24T00:50:37.363Z,16.52
2018-08-24T00:53:06.564Z,17.02
2018-08-24T00:55:35.999Z,18.48
2018-08-24T00:58:04.905Z,18.23
2018-08-24T01:00:39.572Z,18.92
2018-08-24T01:03:08.651Z,17.48
2018-08-24T01:05:38.151Z,16.70
2018-08-24T01:08:07.675Z,17.52
2018-08-24T01:10:38.135Z,19.12
2018-08-24T01:13:12.687Z,21.80
2018-08-24T01:15:48.417Z,26.37
2018-08-24T01:18:19.981Z,25.55
2018-08-24T01:20:53.089Z,24.63
2018-08-24T01:23:23.083Z,26.73
2018-08-24T01:25:55.613Z,28.60
2018-08-24T01:28:26.177Z,32.40
2018-08-24T01:31:01.251Z,35.03
2018-08-24T01:33:30.859Z,34.95
2018-08-24T01:36:00.016Z,35.98
2018-08-24T01:38:28.945Z,36.70
2018-08-24T01:40:58.667Z,39.65
2018-08-24T01:43:27.607Z,40.12
2018-08-24T01:46:01.929Z,39.03
2018-08-24T01:48:30.946Z,41.70
2018-08-24T01:50:59.911Z,44.33
2018-08-24T01:53:29.006Z,43.20
2018-08-24T01:55:59.163Z,51.63
2018-08-24T01:58:28.313Z,55.70
2018-08-24T02:00:58.117Z,61.30
2018-08-24T02:03:27.032Z,64.92
2018-08-24T02:06:12.023Z,62.25
2018-08-24T02:08:41.604Z,67.87
2018-08-24T02:11:16.307Z,82.05
2018-08-24T02:13:51.358Z,85.57
2018-08-24T02:16:21.283Z,80.57
2018-08-24T02:18:55.757Z,72.95
2018-08-24T02:21:30.260Z,71.57
2018-08-24T02:23:59.329Z,88.00
2018-08-24T02:26:28.257Z,93.47
2018-08-24T02:28:57.515Z,89.07
2018-08-24T02:31:26.457Z,87.53
2018-08-24T02:33:55.477Z,91.63
2018-08-24T02:36:24.911Z,84.28
2018-08-24T02:38:53.870Z,71.97
2018-08-24T02:41:23.604Z,67.80
2018-08-24T02:43:52.621Z,65.12
2018-08-24T02:46:21.571Z,57.67
2018-08-24T02:48:50.608Z,53.23
2018-08-24T02:51:19.553Z,51.88
2018-08-24T02:53:48.449Z,51.42
2018-08-24T02:56:17.777Z,50.78
2018-08-24T02:58:46.730Z,53.30
2018-08-24T03:01:16.989Z,49.40
2018-08-24T03:03:46.285Z,48.70
2018-08-24T03:06:15.908Z,48.40
2018-08-24T03:08:44.868Z,52.00
2018-08-24T03:11:13.810Z,48.83
2018-08-24T03:13:42.753Z,46.77
2018-08-24T03:16:11.802Z,46.58
2018-08-24T03:18:40.855Z,44.10
2018-08-24T03:21:09.767Z,46.40
2018-08-24T03:23:38.860Z,42.58
2018-08-24T03:26:08.020Z,42.25
2018-08-24T03:28:36.945Z,41.42
2018-08-24T03:31:05.899Z,45.33
2018-08-24T03:33:34.971Z,42.35
2018-08-24T03:36:03.878Z,43.40
2018-08-24T03:38:33.026Z,42.33
2018-08-24T03:41:02.921Z,42.23
2018-08-24T03:43:32.167Z,41.88
2018-08-24T03:46:01.249Z,39.98
2018-08-24T03:48:30.132Z,40.80
2018-08-24T03:50:59.087Z,39.10
2018-08-24T03:53:28.057Z,38.08
2018-08-24T03:55:57.121Z,35.52
2018-08-24T03:58:26.042Z,34.63
2018-08-24T04:00:57.871Z,33.53
2018-08-24T04:03:27.517Z,33.18
2018-08-24T04:05:56.615Z,33.08
2018-08-24T04:08:26.498Z,36.40
2018-08-24T04:10:55.526Z,34.45
2018-08-24T04:13:24.436Z,32.08
2018-08-24T04:15:53.554Z,30.12
2018-08-24T04:18:22.498Z,32.67
2018-08-24T04:20:52.056Z,31.62
2018-08-24T04:23:20.999Z,31.95
2018-08-24T04:25:50.489Z,32.70
2018-08-24T04:28:19.314Z,32.83
2018-08-24T04:30:49.010Z,32.83
2018-08-24T04:33:17.980Z,30.75
2018-08-24T04:35:47.056Z,30.40
2018-08-24T04:38:16.442Z,30.02
2018-08-24T04:40:45.396Z,27.77
2018-08-24T04:43:20.969Z,27.00
2018-08-24T04:45:50.378Z,26.30
2018-08-24T04:48:19.266Z,26.10
2018-08-24T04:53:23.524Z,25.52
2018-08-24T04:55:52.803Z,25.10
2018-08-24T04:58:22.457Z,24.82
2018-08-24T05:00:52.889Z,25.80
2018-08-24T05:03:21.909Z,25.10
2018-08-24T05:05:50.913Z,26.30
2018-08-24T05:08:20.349Z,25.70
2018-08-24T05:10:49.330Z,25.50
2018-08-24T05:13:18.214Z,28.27
2018-08-24T05:15:47.178Z,29.12
2018-08-24T05:20:55.466Z,27.00
2018-08-24T05:23:24.981Z,28.27
2018-08-24T05:25:54.017Z,27.05
2018-08-24T05:28:23.377Z,27.48
2018-08-24T05:30:52.814Z,28.25
2018-08-24T05:33:21.988Z,29.40
2018-08-24T05:35:51.336Z,28.67
2018-08-24T05:38:20.578Z,27.70
2018-08-24T05:40:49.788Z,29.52
2018-08-24T05:43:19.442Z,28.30
2018-08-24T05:45:49.046Z,28.62
2018-08-24T05:48:18.495Z,30.15
2018-08-24T05:50:47.621Z,30.52
2018-08-24T05:53:16.562Z,29.45
2018-08-24T05:55:45.626Z,33.08
2018-08-24T05:58:14.823Z,34.03
2018-08-24T06:00:48.057Z,30.48
2018-08-24T06:03:17.267Z,30.37
2018-08-24T06:05:51.621Z,33.02
2018-08-24T06:08:20.821Z,30.90
2018-08-24T06:10:50.644Z,31.02
2018-08-24T06:13:20.179Z,30.80
2018-08-24T06:15:50.118Z,30.65
2018-08-24T06:18:19.263Z,30.77
2018-08-24T06:20:48.995Z,29.70
2018-08-24T06:23:18.131Z,30.27
2018-08-24T06:25:47.127Z,30.40
2018-08-24T06:28:16.123Z,28.95
2018-08-24T06:30:45.112Z,28.42
2018-08-24T06:33:14.193Z,27.95
2018-08-24T06:35:43.464Z,28.70
2018-08-24T06:38:13.478Z,26.55
2018-08-24T06:40:42.711Z,26.23
2018-08-24T06:43:11.687Z,26.27
2018-08-24T06:45:40.759Z,25.85
2018-08-24T06:48:09.763Z,25.90
2018-08-24T06:50:38.759Z,23.15
2018-08-24T06:53:07.785Z,22.37
2018-08-24T06:55:37.653Z,22.13
2018-08-24T06:58:06.708Z,22.13
2018-08-24T07:00:36.276Z,20.97
2018-08-24T07:03:05.227Z,20.43
2018-08-24T07:05:36.736Z,20.75
2018-08-24T07:08:05.999Z,20.77
2018-08-24T07:10:35.043Z,21.33
2018-08-24T07:13:04.417Z,20.20
2018-08-24T07:15:40.299Z,20.55
2018-08-24T07:18:09.313Z,20.85
2018-08-24T07:20:38.299Z,19.90
2018-08-24T07:23:07.625Z,19.50
2018-08-24T07:25:36.706Z,17.70
2018-08-24T07:28:06.093Z,16.97
2018-08-24T07:30:35.105Z,17.25
2018-08-24T07:33:05.165Z,16.23
2018-08-24T07:35:34.265Z,16.65
2018-08-24T07:38:03.515Z,15.68
2018-08-24T07:40:32.850Z,14.03
2018-08-24T07:43:01.924Z,13.62
2018-08-24T07:45:37.722Z,12.73
2018-08-24T07:48:06.852Z,12.05
2018-08-24T07:50:35.881Z,12.37
2018-08-24T07:53:04.948Z,13.58
2018-08-24T07:55:34.134Z,12.23
2018-08-24T07:58:03.339Z,13.90
2018-08-24T08:00:32.352Z,13.43
2018-08-24T08:06:48.415Z,13.68
2018-08-24T08:09:19.253Z,11.10
2018-08-24T08:11:48.224Z,13.28
2018-08-24T08:14:17.345Z,12.53
2018-08-24T08:16:46.711Z,12.78
2018-08-24T08:19:15.637Z,15.35
2018-08-24T08:21:46.217Z,15.53
2018-08-24T08:24:16.185Z,16.10
2018-08-24T08:26:46.035Z,16.62
2018-08-24T08:29:20.623Z,17.55
2018-08-24T08:31:49.671Z,16.57
2018-08-24T08:34:18.750Z,16.97
2018-08-24T08:36:48.299Z,17.23
2018-08-24T08:39:18.844Z,17.40
2018-08-24T08:41:48.109Z,17.15
2018-08-24T08:44:17.441Z,17.20
2018-08-24T08:46:46.497Z,14.60
2018-08-24T08:49:15.511Z,15.90
2018-08-24T08:51:44.595Z,13.80
2018-08-24T08:54:13.874Z,13.00
2018-08-24T08:56:43.088Z,14.33
2018-08-24T08:59:12.043Z,12.78
2018-08-24T09:01:41.860Z,12.68
2018-08-24T09:04:11.202Z,10.88
2018-08-24T09:06:40.291Z,10.55
2018-08-24T09:09:14.147Z,10.80
2018-08-24T09:16:13.823Z,11.75
2018-08-24T09:18:49.057Z,9.20
2018-08-24T09:21:23.379Z,9.05
2018-08-24T09:23:58.381Z,7.47
2018-08-24T09:26:32.901Z,7.40
2018-08-24T09:29:07.114Z,6.92
2018-08-24T09:31:38.984Z,6.03
2018-08-24T09:34:08.129Z,5.58
2018-08-24T09:36:37.693Z,6.87
2018-08-24T09:39:09.168Z,6.45
2018-08-24T09:41:39.167Z,7.67
2018-08-24T09:44:08.629Z,6.95
2018-08-24T09:48:47.657Z,6.05
2018-08-24T09:55:39.690Z,5.85
2018-08-24T09:58:09.505Z,7.60
2018-08-24T10:00:43.893Z,7.70
2018-08-24T10:03:19.140Z,6.95
2018-08-24T10:05:53.640Z,8.05
2018-08-24T10:08:27.959Z,9.35
2018-08-24T10:10:57.213Z,9.25
2018-08-24T10:13:26.456Z,7.90
2018-08-24T10:15:55.495Z,8.73
2018-08-24T10:25:50.731Z,8.58
2018-08-24T10:28:19.983Z,11.12
2018-08-24T10:30:49.167Z,8.10
2018-08-24T10:33:18.114Z,7.95
2018-08-24T10:35:47.883Z,7.53
2018-08-24T10:38:17.001Z,14.05
2018-08-24T10:40:46.146Z,8.95
2018-08-24T10:57:36.709Z,6.37
2018-08-24T11:00:06.069Z,4.67
2018-08-24T11:02:35.189Z,4.83
2018-08-24T11:05:04.452Z,6.28
2018-08-24T11:07:33.523Z,5.80
2018-08-24T11:10:03.169Z,6.70
2018-08-24T11:12:33.177Z,7.28
2018-08-24T11:15:05.000Z,9.80
2018-08-24T11:17:39.445Z,5.70
2018-08-24T11:20:11.019Z,8.33
2018-08-24T11:22:39.944Z,7.20
2018-08-24T11:25:08.913Z,4.47
2018-08-24T11:27:38.517Z,4.85
2018-08-24T11:30:08.453Z,6.00
2018-08-24T11:32:38.483Z,5.95
2018-08-24T11:35:10.141Z,5.87
2018-08-24T11:53:32.736Z,6.25
2018-08-24T11:56:01.752Z,5.95
2018-08-24T11:58:30.945Z,7.65
2018-08-24T12:01:00.008Z,5.65
2018-08-24T12:03:29.813Z,6.12
2018-08-24T12:05:58.833Z,5.62
2018-08-24T12:08:28.036Z,6.40
2018-08-24T12:10:59.607Z,6.08
2018-08-24T12:13:28.819Z,5.25
2018-08-24T12:15:58.880Z,7.67
2018-08-24T12:18:28.135Z,5.58
2018-08-24T12:20:58.650Z,7.62
2018-08-24T12:23:49.091Z,8.95
2018-08-24T12:29:06.454Z,6.12
2018-08-24T12:31:36.338Z,6.55
2018-08-24T12:37:51.431Z,8.78
2018-08-24T12:40:21.559Z,6.92
2018-08-24T12:42:51.199Z,8.88
2018-08-24T12:45:21.629Z,7.65
2018-08-24T12:47:50.665Z,7.60
2018-08-24T12:50:19.872Z,7.78
2018-08-24T12:52:49.062Z,9.65
2018-08-24T12:55:18.176Z,8.08
2018-08-24T12:57:47.170Z,8.25
2018-08-24T13:00:16.416Z,7.85
2018-08-24T13:02:46.447Z,8.85
2018-08-24T13:05:20.013Z,8.38
2018-08-24T13:07:49.050Z,8.35
2018-08-24T13:10:19.107Z,8.75
2018-08-24T13:12:48.175Z,7.97
2018-08-24T13:15:17.253Z,9.30
2018-08-24T13:17:47.511Z,8.83
2018-08-24T13:20:17.325Z,8.38
2018-08-24T13:22:46.291Z,8.38
2018-08-24T13:25:15.515Z,8.08
2018-08-24T13:27:44.523Z,8.23
2018-08-24T13:30:14.042Z,7.67
2018-08-24T13:32:43.013Z,10.70
2018-08-24T13:35:12.141Z,9.60
2018-08-24T13:37:53.855Z,8.60
2018-08-24T13:40:23.173Z,9.95
2018-08-24T13:42:53.221Z,8.48
2018-08-24T13:45:22.353Z,8.08
2018-08-24T13:47:51.500Z,7.50
2018-08-24T13:50:22.020Z,8.25
2018-08-24T13:52:51.081Z,10.43
2018-08-24T13:55:20.145Z,8.48
2018-08-24T13:57:49.690Z,8.83
2018-08-24T14:00:21.052Z,8.98
2018-08-24T14:02:50.093Z,8.45
2018-08-24T14:05:19.515Z,8.05
2018-08-24T14:07:48.957Z,9.15
2018-08-24T14:10:18.160Z,8.70
2018-08-24T14:12:48.211Z,10.13
2018-08-24T14:15:18.032Z,10.28
2018-08-24T14:17:53.877Z,8.35
2018-08-24T14:20:24.319Z,8.33
2018-08-24T14:22:53.397Z,8.70
2018-08-24T14:25:23.761Z,7.70
2018-08-24T14:27:53.717Z,9.55
2018-08-24T14:30:22.721Z,8.70
2018-08-24T14:32:52.413Z,8.73
2018-08-24T14:35:21.465Z,8.30
2018-08-24T14:37:50.801Z,8.68
2018-08-24T14:40:20.155Z,9.15
2018-08-24T14:42:50.239Z,11.22
2018-08-24T14:45:19.782Z,9.35
2018-08-24T14:47:49.157Z,9.43
2018-08-24T14:50:18.816Z,9.23
2018-08-24T14:52:48.016Z,8.88
2018-08-24T14:55:17.521Z,9.10
2018-08-24T14:57:46.480Z,8.30
2018-08-24T15:00:15.664Z,9.03
2018-08-24T15:02:44.664Z,10.23
2018-08-24T15:05:21.032Z,8.75
2018-08-24T15:07:50.743Z,8.70
2018-08-24T15:10:19.885Z,8.95
2018-08-24T15:12:49.892Z,11.57
2018-08-24T15:15:19.081Z,10.72
2018-08-24T15:17:48.121Z,9.58
2018-08-24T15:20:17.572Z,8.58
2018-08-24T15:22:46.660Z,10.40
2018-08-24T15:25:15.972Z,9.20
2018-08-24T15:27:45.560Z,9.23
2018-08-24T15:30:14.924Z,9.15
2018-08-24T15:35:12.313Z,8.25
2018-08-24T15:37:41.402Z,8.50
2018-08-24T15:40:10.769Z,10.70
2018-08-24T15:42:39.776Z,8.40
2018-08-24T15:45:09.408Z,8.15
2018-08-24T15:47:38.292Z,9.73
2018-08-24T15:52:48.262Z,8.28
2018-08-24T15:55:17.604Z,11.48
2018-08-24T15:57:47.775Z,11.22
2018-08-24T16:00:17.057Z,8.10
2018-08-24T16:02:46.217Z,7.83
2018-08-24T16:05:15.306Z,8.85
2018-08-24T16:07:44.520Z,8.53
2018-08-24T16:10:13.784Z,9.00
2018-08-24T16:12:43.050Z,8.03
2018-08-24T16:15:12.864Z,8.33
2018-08-24T16:17:42.581Z,8.88
2018-08-24T16:20:11.802Z,8.25
2018-08-24T16:22:42.270Z,7.90
2018-08-24T16:25:12.315Z,9.23
2018-08-24T16:27:41.707Z,8.18
2018-08-24T16:30:10.765Z,10.00
2018-08-24T16:32:39.949Z,9.33
2018-08-24T16:35:09.091Z,8.65
2018-08-24T16:37:38.870Z,8.18
2018-08-24T16:40:09.287Z,8.95
2018-08-24T16:42:38.660Z,7.87
2018-08-24T16:45:08.205Z,9.35
2018-08-24T16:47:37.104Z,9.95
2018-08-24T16:50:06.239Z,8.75
2018-08-24T16:52:39.666Z,9.20
2018-08-24T16:55:09.530Z,8.40
2018-08-24T16:57:39.444Z,8.63
2018-08-24T17:02:41.064Z,8.03
2018-08-24T17:05:13.796Z,10.30
2018-08-24T17:07:45.540Z,10.20
2018-08-24T17:10:14.492Z,8.63
2018-08-24T17:13:46.654Z,7.10
2018-08-24T17:16:16.474Z,6.78
2018-08-24T17:18:46.132Z,6.97
2018-08-24T17:21:15.329Z,8.48
2018-08-24T17:23:46.256Z,8.90
2018-08-24T17:26:16.182Z,7.08
2018-08-24T17:28:45.579Z,6.50
2018-08-24T17:31:21.333Z,7.45
2018-08-24T17:34:03.059Z,6.55
2018-08-24T17:39:17.432Z,9.00
2018-08-24T17:41:48.284Z,5.45
2018-08-24T17:44:17.391Z,5.75
2018-08-24T17:46:58.360Z,4.80
2018-08-24T17:49:29.624Z,5.22
2018-08-24T17:51:59.325Z,5.08
2018-08-24T17:57:05.902Z,6.78
2018-08-24T17:59:47.721Z,4.20
2018-08-24T18:02:22.091Z,7.03
2018-08-24T18:04:53.542Z,5.47
2018-08-24T18:07:23.173Z,5.47
2018-08-24T18:09:52.980Z,6.80
2018-08-24T18:12:22.021Z,6.45
2018-08-24T18:14:52.638Z,7.55
2018-08-24T18:17:24.222Z,5.53
2018-08-24T18:20:06.960Z,5.10
2018-08-24T18:22:52.086Z,7.92
2018-08-24T18:28:03.616Z,5.08
2018-08-24T18:30:39.213Z,5.65
2018-08-24T18:33:08.198Z,5.97
2018-08-24T18:35:49.240Z,5.87
2018-08-24T18:51:22.819Z,6.45
2018-08-24T18:54:02.433Z,6.42
2018-08-24T18:59:34.280Z,6.05
2018-08-24T19:02:04.506Z,4.95
2018-08-24T19:04:37.908Z,4.95
2018-08-24T19:07:07.714Z,5.78
2018-08-24T19:09:36.719Z,5.15
2018-08-24T19:12:11.223Z,6.28
2018-08-24T19:14:57.766Z,5.25
2018-08-24T19:17:37.483Z,4.30
2018-08-24T19:20:11.878Z,7.62
2018-08-24T19:22:45.161Z,5.62
2018-08-24T19:25:14.126Z,7.45
2018-08-24T19:27:48.577Z,5.60
2018-08-24T19:33:23.288Z,5.58
2018-08-24T19:36:03.930Z,15.78
2018-08-24T19:38:45.153Z,5.10
2018-08-24T19:41:32.406Z,4.85
2018-08-24T19:44:15.744Z,9.20
2018-08-24T19:46:51.778Z,7.10
2018-08-24T19:49:44.165Z,5.25
2018-08-24T19:52:22.032Z,5.92
2018-08-24T19:57:46.648Z,6.97
2018-08-24T20:00:18.089Z,5.50
2018-08-24T20:02:47.399Z,5.83
2018-08-24T20:05:17.366Z,8.28
2018-08-24T20:07:52.623Z,6.85
2018-08-24T20:10:25.024Z,6.08
2018-08-24T20:12:54.159Z,5.58
2018-08-24T20:15:28.915Z,6.08
2018-08-24T20:17:58.105Z,6.37
2018-08-24T20:20:27.171Z,4.97
2018-08-24T20:22:57.135Z,6.90
2018-08-24T20:25:27.113Z,6.12
2018-08-24T20:27:56.957Z,5.72
2018-08-24T20:30:28.179Z,5.85
2018-08-24T20:32:58.787Z,4.72
2018-08-24T20:35:29.473Z,6.17
2018-08-24T20:37:59.577Z,4.85
2018-08-24T20:40:29.032Z,6.65
2018-08-24T20:42:58.754Z,5.55
2018-08-24T20:45:27.958Z,9.25
2018-08-24T20:47:56.954Z,4.83
2018-08-24T20:50:26.242Z,5.40
2018-08-24T20:52:57.417Z,5.67
2018-08-24T20:55:26.720Z,5.95
2018-08-24T20:57:55.671Z,5.78
2018-08-24T21:00:25.501Z,5.62
2018-08-24T21:02:55.084Z,5.25
2018-08-24T21:05:24.144Z,4.50
2018-08-24T21:07:54.210Z,5.80
2018-08-24T21:10:23.243Z,5.47
2018-08-24T21:12:54.059Z,6.37
2018-08-24T21:15:23.034Z,7.50
2018-08-24T21:17:52.389Z,7.28
2018-08-24T21:20:21.934Z,7.12
2018-08-24T21:22:50.850Z,6.22
2018-08-24T21:25:19.855Z,5.97
2018-08-24T21:27:48.938Z,6.92
2018-08-24T21:30:19.362Z,6.70
2018-08-24T21:32:48.225Z,5.33
2018-08-24T21:35:17.682Z,5.10
2018-08-24T21:37:46.729Z,5.00
2018-08-24T21:40:16.438Z,7.55
2018-08-24T21:42:45.594Z,5.97
2018-08-24T21:45:14.828Z,5.65
2018-08-24T21:47:43.848Z,10.35
2018-08-24T21:50:12.873Z,6.22
2018-08-24T21:52:41.902Z,6.12
2018-08-24T21:55:11.992Z,8.05
2018-08-24T21:57:41.213Z,8.73
2018-08-24T22:00:14.677Z,4.80
2018-08-24T22:02:45.391Z,5.60
2018-08-24T22:05:17.486Z,5.97
2018-08-24T22:07:49.941Z,4.60
2018-08-24T22:10:19.404Z,7.62
2018-08-24T22:12:50.338Z,6.55
2018-08-24T22:15:21.020Z,3.62
2018-08-24T22:17:49.980Z,4.42
2018-08-24T22:20:19.477Z,4.08
2018-08-24T22:22:48.920Z,2.62
2018-08-24T22:25:18.215Z,3.15
2018-08-24T22:27:48.017Z,4.90
2018-08-24T22:30:17.091Z,4.70
2018-08-24T22:32:46.433Z,3.87
2018-08-24T22:35:16.037Z,3.22
2018-08-24T22:37:45.233Z,3.50
2018-08-24T22:40:14.486Z,4.92
2018-08-24T22:42:45.031Z,4.45
2018-08-24T22:45:15.471Z,2.65
2018-08-24T22:47:44.867Z,4.75
2018-08-24T22:50:13.921Z,5.28
2018-08-24T22:52:43.249Z,5.28
2018-08-24T22:55:12.168Z,7.42
2018-08-24T22:57:41.556Z,4.58
2018-08-24T23:00:10.564Z,7.17
2018-08-24T23:02:39.516Z,3.25
2018-08-24T23:05:08.959Z,6.55
2018-08-24T23:07:38.163Z,5.47
2018-08-24T23:10:08.295Z,3.60
2018-08-24T23:12:37.469Z,4.40
2018-08-24T23:15:07.904Z,5.50
2018-08-24T23:17:36.828Z,3.27
2018-08-24T23:20:06.146Z,3.95
2018-08-24T23:22:35.153Z,3.25
2018-08-24T23:25:04.232Z,6.30
2018-08-24T23:27:35.143Z,3.75
2018-08-24T23:30:04.483Z,3.92
2018-08-24T23:32:34.583Z,3.50
2018-08-24T23:38:06.690Z,3.77
2018-08-24T23:41:06.410Z,6.15
2018-08-24T23:44:02.188Z,2.98
2018-08-24T23:46:32.087Z,3.85
2018-08-24T23:49:01.081Z,6.12
2018-08-24T23:51:30.162Z,6.25
2018-08-24T23:54:00.247Z,6.85
2018-08-24T23:56:33.123Z,7.40
2018-08-24T23:59:03.390Z,4.20
